sensor_id;sensor_type;location;lat;lon;timestamp;P1;durP1;ratioP1;P2;durP2;ratioP2
10851;SDS011;5479;52.046;6.314;2022-07-30T00:01:20;16.33;;;8.97;;
10851;SDS011;5479;52.046;6.314;2022-07-30T00:03:49;14.23;;;9.33;;
10851;SDS011;5479;52.046;6.314;2022-07-30T00:06:17;13.13;;;9.90;;
10851;SDS011;5479;52.046;6.314;2022-07-30T00:08:45;16.40;;;10.63;;
10851;SDS011;5479;52.046;6.314;2022-07-30T00:11:14;14.30;;;10.07;;
10851;SDS011;5479;52.046;6.314;2022-07-30T00:13:42;15.57;;;10.40;;
10851;SDS011;5479;52.046;6.314;2022-07-30T00:16:10;16.27;;;10.67;;
10851;SDS011;5479;52.046;6.314;2022-07-30T00:18:37;17.67;;;11.50;;
10851;SDS011;5479;52.046;6.314;2022-07-30T00:21:05;17.40;;;11.70;;
10851;SDS011;5479;52.046;6.314;2022-07-30T00:23:33;16.73;;;11.37;;
10851;SDS011;5479;52.046;6.314;2022-07-30T00:26:02;16.37;;;11.63;;
10851;SDS011;5479;52.046;6.314;2022-07-30T00:28:31;15.90;;;12.40;;
10851;SDS011;5479;52.046;6.314;2022-07-30T00:30:59;17.20;;;11.90;;
10851;SDS011;5479;52.046;6.314;2022-07-30T00:33:27;21.03;;;12.97;;
10851;SDS011;5479;52.046;6.314;2022-07-30T00:35:55;17.50;;;12.40;;
10851;SDS011;5479;52.046;6.314;2022-07-30T00:38:23;18.67;;;13.23;;
10851;SDS011;5479;52.046;6.314;2022-07-30T00:40:51;17.93;;;13.03;;
10851;SDS011;5479;52.046;6.314;2022-07-30T00:43:19;18.83;;;12.73;;
10851;SDS011;5479;52.046;6.314;2022-07-30T00:45:48;20.23;;;13.37;;
10851;SDS011;5479;52.046;6.314;2022-07-30T00:48:16;23.83;;;13.10;;
10851;SDS011;5479;52.046;6.314;2022-07-30T00:50:44;18.13;;;13.40;;
10851;SDS011;5479;52.046;6.314;2022-07-30T00:53:11;20.17;;;14.97;;
10851;SDS011;5479;52.046;6.314;2022-07-30T00:55:39;19.80;;;14.90;;
10851;SDS011;5479;52.046;6.314;2022-07-30T00:58:07;23.00;;;15.00;;
10851;SDS011;5479;52.046;6.314;2022-07-30T01:00:35;20.77;;;14.70;;
10851;SDS011;5479;52.046;6.314;2022-07-30T01:03:04;21.83;;;15.87;;
10851;SDS011;5479;52.046;6.314;2022-07-30T01:05:32;21.70;;;15.47;;
10851;SDS011;5479;52.046;6.314;2022-07-30T01:08:00;20.77;;;14.97;;
10851;SDS011;5479;52.046;6.314;2022-07-30T01:10:28;19.53;;;15.90;;
10851;SDS011;5479;52.046;6.314;2022-07-30T01:12:56;18.83;;;16.47;;
10851;SDS011;5479;52.046;6.314;2022-07-30T01:15:24;21.87;;;17.17;;
10851;SDS011;5479;52.046;6.314;2022-07-30T01:17:54;18.47;;;16.47;;
10851;SDS011;5479;52.046;6.314;2022-07-30T01:20:27;20.00;;;15.90;;
10851;SDS011;5479;52.046;6.314;2022-07-30T01:23:00;21.17;;;16.63;;
10851;SDS011;5479;52.046;6.314;2022-07-30T01:28:25;24.10;;;16.30;;
10851;SDS011;5479;52.046;6.314;2022-07-30T01:30:55;22.73;;;17.30;;
10851;SDS011;5479;52.046;6.314;2022-07-30T01:33:25;24.47;;;17.90;;
10851;SDS011;5479;52.046;6.314;2022-07-30T01:35:54;23.17;;;18.03;;
10851;SDS011;5479;52.046;6.314;2022-07-30T01:38:24;23.27;;;18.20;;
10851;SDS011;5479;52.046;6.314;2022-07-30T01:40:54;19.83;;;17.50;;
10851;SDS011;5479;52.046;6.314;2022-07-30T01:43:23;25.63;;;17.70;;
10851;SDS011;5479;52.046;6.314;2022-07-30T01:45:53;27.03;;;17.70;;
10851;SDS011;5479;52.046;6.314;2022-07-30T01:48:22;23.77;;;16.73;;
10851;SDS011;5479;52.046;6.314;2022-07-30T01:50:52;21.53;;;17.10;;
10851;SDS011;5479;52.046;6.314;2022-07-30T01:53:22;23.17;;;17.50;;
10851;SDS011;5479;52.046;6.314;2022-07-30T01:55:52;24.20;;;17.47;;
10851;SDS011;5479;52.046;6.314;2022-07-30T01:58:23;24.37;;;16.90;;
10851;SDS011;5479;52.046;6.314;2022-07-30T02:00:54;21.87;;;16.37;;
10851;SDS011;5479;52.046;6.314;2022-07-30T02:03:24;23.07;;;16.67;;
10851;SDS011;5479;52.046;6.314;2022-07-30T02:05:54;21.47;;;17.73;;
10851;SDS011;5479;52.046;6.314;2022-07-30T02:08:27;22.53;;;17.47;;
10851;SDS011;5479;52.046;6.314;2022-07-30T02:11:06;20.23;;;16.43;;
10851;SDS011;5479;52.046;6.314;2022-07-30T02:13:38;21.47;;;16.60;;
10851;SDS011;5479;52.046;6.314;2022-07-30T02:16:12;23.87;;;16.50;;
10851;SDS011;5479;52.046;6.314;2022-07-30T02:18:46;24.73;;;17.23;;
10851;SDS011;5479;52.046;6.314;2022-07-30T02:21:17;23.37;;;17.73;;
10851;SDS011;5479;52.046;6.314;2022-07-30T02:23:47;23.53;;;16.70;;
10851;SDS011;5479;52.046;6.314;2022-07-30T02:26:20;21.27;;;15.70;;
10851;SDS011;5479;52.046;6.314;2022-07-30T02:28:50;22.77;;;16.20;;
10851;SDS011;5479;52.046;6.314;2022-07-30T02:31:21;23.77;;;17.83;;
10851;SDS011;5479;52.046;6.314;2022-07-30T02:33:52;25.77;;;17.17;;
10851;SDS011;5479;52.046;6.314;2022-07-30T02:36:24;23.33;;;17.23;;
10851;SDS011;5479;52.046;6.314;2022-07-30T02:38:54;22.50;;;17.30;;
10851;SDS011;5479;52.046;6.314;2022-07-30T02:41:25;21.67;;;16.63;;
10851;SDS011;5479;52.046;6.314;2022-07-30T02:43:55;23.23;;;16.87;;
10851;SDS011;5479;52.046;6.314;2022-07-30T02:46:24;26.67;;;17.87;;
10851;SDS011;5479;52.046;6.314;2022-07-30T02:48:52;23.87;;;17.87;;
10851;SDS011;5479;52.046;6.314;2022-07-30T02:51:22;24.37;;;18.07;;
10851;SDS011;5479;52.046;6.314;2022-07-30T02:53:52;23.83;;;17.23;;
10851;SDS011;5479;52.046;6.314;2022-07-30T02:56:24;22.70;;;17.00;;
10851;SDS011;5479;52.046;6.314;2022-07-30T02:58:54;20.17;;;17.70;;
10851;SDS011;5479;52.046;6.314;2022-07-30T03:01:24;19.87;;;17.70;;
10851;SDS011;5479;52.046;6.314;2022-07-30T03:03:52;19.57;;;17.47;;
10851;SDS011;5479;52.046;6.314;2022-07-30T03:06:21;22.67;;;17.70;;
10851;SDS011;5479;52.046;6.314;2022-07-30T03:08:50;20.60;;;17.97;;
10851;SDS011;5479;52.046;6.314;2022-07-30T03:11:21;24.27;;;18.53;;
10851;SDS011;5479;52.046;6.314;2022-07-30T03:13:52;22.10;;;17.67;;
10851;SDS011;5479;52.046;6.314;2022-07-30T03:16:21;21.07;;;18.23;;
10851;SDS011;5479;52.046;6.314;2022-07-30T03:18:51;22.97;;;18.57;;
10851;SDS011;5479;52.046;6.314;2022-07-30T03:21:21;23.53;;;18.20;;
10851;SDS011;5479;52.046;6.314;2022-07-30T03:23:53;21.27;;;18.93;;
10851;SDS011;5479;52.046;6.314;2022-07-30T03:26:23;21.80;;;19.00;;
10851;SDS011;5479;52.046;6.314;2022-07-30T03:28:54;21.43;;;19.13;;
10851;SDS011;5479;52.046;6.314;2022-07-30T03:31:23;24.37;;;20.03;;
10851;SDS011;5479;52.046;6.314;2022-07-30T03:33:52;21.97;;;19.67;;
10851;SDS011;5479;52.046;6.314;2022-07-30T03:36:20;24.53;;;19.83;;
10851;SDS011;5479;52.046;6.314;2022-07-30T03:38:48;22.53;;;20.03;;
10851;SDS011;5479;52.046;6.314;2022-07-30T03:41:17;21.97;;;19.57;;
10851;SDS011;5479;52.046;6.314;2022-07-30T03:43:46;23.07;;;19.10;;
10851;SDS011;5479;52.046;6.314;2022-07-30T03:46:16;23.60;;;21.10;;
10851;SDS011;5479;52.046;6.314;2022-07-30T03:48:45;25.13;;;21.60;;
10851;SDS011;5479;52.046;6.314;2022-07-30T03:51:13;26.27;;;21.23;;
10851;SDS011;5479;52.046;6.314;2022-07-30T03:53:43;25.77;;;21.40;;
10851;SDS011;5479;52.046;6.314;2022-07-30T03:56:12;26.70;;;21.43;;
10851;SDS011;5479;52.046;6.314;2022-07-30T03:58:40;25.50;;;20.27;;
10851;SDS011;5479;52.046;6.314;2022-07-30T04:01:08;24.37;;;20.27;;
10851;SDS011;5479;52.046;6.314;2022-07-30T04:03:37;28.07;;;20.40;;
10851;SDS011;5479;52.046;6.314;2022-07-30T04:06:05;23.60;;;19.33;;
10851;SDS011;5479;52.046;6.314;2022-07-30T04:08:33;25.83;;;20.63;;
10851;SDS011;5479;52.046;6.314;2022-07-30T04:11:01;26.00;;;20.43;;
10851;SDS011;5479;52.046;6.314;2022-07-30T04:13:29;23.77;;;19.47;;
10851;SDS011;5479;52.046;6.314;2022-07-30T04:15:58;22.80;;;19.27;;
10851;SDS011;5479;52.046;6.314;2022-07-30T04:18:33;23.90;;;18.87;;
10851;SDS011;5479;52.046;6.314;2022-07-30T04:21:06;24.67;;;19.13;;
10851;SDS011;5479;52.046;6.314;2022-07-30T04:23:37;21.20;;;17.87;;
10851;SDS011;5479;52.046;6.314;2022-07-30T04:26:06;23.47;;;17.80;;
10851;SDS011;5479;52.046;6.314;2022-07-30T04:28:35;24.23;;;17.50;;
10851;SDS011;5479;52.046;6.314;2022-07-30T04:31:03;22.37;;;17.23;;
10851;SDS011;5479;52.046;6.314;2022-07-30T04:33:31;22.13;;;16.60;;
10851;SDS011;5479;52.046;6.314;2022-07-30T04:36:05;21.37;;;16.87;;
10851;SDS011;5479;52.046;6.314;2022-07-30T04:38:33;20.40;;;17.23;;
10851;SDS011;5479;52.046;6.314;2022-07-30T04:41:01;21.10;;;17.37;;
10851;SDS011;5479;52.046;6.314;2022-07-30T04:43:29;21.47;;;17.20;;
10851;SDS011;5479;52.046;6.314;2022-07-30T04:45:57;22.43;;;17.23;;
10851;SDS011;5479;52.046;6.314;2022-07-30T04:48:25;25.13;;;17.43;;
10851;SDS011;5479;52.046;6.314;2022-07-30T04:50:55;22.47;;;16.57;;
10851;SDS011;5479;52.046;6.314;2022-07-30T04:53:27;20.07;;;16.07;;
10851;SDS011;5479;52.046;6.314;2022-07-30T04:55:55;23.83;;;16.87;;
10851;SDS011;5479;52.046;6.314;2022-07-30T04:58:26;19.53;;;15.67;;
10851;SDS011;5479;52.046;6.314;2022-07-30T05:00:54;20.23;;;15.97;;
10851;SDS011;5479;52.046;6.314;2022-07-30T05:03:24;19.37;;;15.00;;
10851;SDS011;5479;52.046;6.314;2022-07-30T05:05:52;20.10;;;16.03;;
10851;SDS011;5479;52.046;6.314;2022-07-30T05:08:22;23.00;;;16.03;;
10851;SDS011;5479;52.046;6.314;2022-07-30T05:10:52;19.20;;;15.97;;
10851;SDS011;5479;52.046;6.314;2022-07-30T05:13:20;22.50;;;15.43;;
10851;SDS011;5479;52.046;6.314;2022-07-30T05:15:47;20.17;;;15.67;;
10851;SDS011;5479;52.046;6.314;2022-07-30T05:18:15;18.83;;;14.43;;
10851;SDS011;5479;52.046;6.314;2022-07-30T05:20:43;16.47;;;13.27;;
10851;SDS011;5479;52.046;6.314;2022-07-30T05:23:11;17.13;;;13.97;;
10851;SDS011;5479;52.046;6.314;2022-07-30T05:25:39;15.90;;;14.20;;
10851;SDS011;5479;52.046;6.314;2022-07-30T05:28:08;18.77;;;14.23;;
10851;SDS011;5479;52.046;6.314;2022-07-30T05:30:36;16.67;;;13.07;;
10851;SDS011;5479;52.046;6.314;2022-07-30T05:33:04;15.07;;;13.10;;
10851;SDS011;5479;52.046;6.314;2022-07-30T05:35:32;18.33;;;13.33;;
10851;SDS011;5479;52.046;6.314;2022-07-30T05:37:59;16.13;;;13.50;;
10851;SDS011;5479;52.046;6.314;2022-07-30T05:40:27;17.70;;;13.80;;
10851;SDS011;5479;52.046;6.314;2022-07-30T05:42:55;18.33;;;14.13;;
10851;SDS011;5479;52.046;6.314;2022-07-30T05:45:24;18.97;;;14.83;;
10851;SDS011;5479;52.046;6.314;2022-07-30T05:47:52;19.30;;;14.50;;
10851;SDS011;5479;52.046;6.314;2022-07-30T05:50:20;16.37;;;13.37;;
10851;SDS011;5479;52.046;6.314;2022-07-30T05:52:48;15.47;;;13.40;;
10851;SDS011;5479;52.046;6.314;2022-07-30T05:55:16;17.83;;;12.67;;
10851;SDS011;5479;52.046;6.314;2022-07-30T05:57:44;14.63;;;12.30;;
10851;SDS011;5479;52.046;6.314;2022-07-30T06:00:12;13.50;;;12.07;;
10851;SDS011;5479;52.046;6.314;2022-07-30T06:02:42;17.60;;;12.82;;
10851;SDS011;5479;52.046;6.314;2022-07-30T06:05:10;15.93;;;12.50;;
10851;SDS011;5479;52.046;6.314;2022-07-30T06:07:38;13.53;;;11.17;;
10851;SDS011;5479;52.046;6.314;2022-07-30T06:10:06;13.63;;;10.75;;
10851;SDS011;5479;52.046;6.314;2022-07-30T06:12:34;12.65;;;10.05;;
10851;SDS011;5479;52.046;6.314;2022-07-30T06:15:02;14.03;;;10.40;;
10851;SDS011;5479;52.046;6.314;2022-07-30T06:17:30;13.00;;;11.03;;
10851;SDS011;5479;52.046;6.314;2022-07-30T06:19:59;12.65;;;10.30;;
10851;SDS011;5479;52.046;6.314;2022-07-30T06:22:27;11.88;;;10.13;;
10851;SDS011;5479;52.046;6.314;2022-07-30T06:24:55;12.80;;;9.90;;
10851;SDS011;5479;52.046;6.314;2022-07-30T06:27:23;13.13;;;10.20;;
10851;SDS011;5479;52.046;6.314;2022-07-30T06:29:52;13.70;;;9.82;;
10851;SDS011;5479;52.046;6.314;2022-07-30T06:32:20;13.15;;;9.27;;
10851;SDS011;5479;52.046;6.314;2022-07-30T06:34:48;12.43;;;9.45;;
10851;SDS011;5479;52.046;6.314;2022-07-30T06:37:17;13.38;;;9.07;;
10851;SDS011;5479;52.046;6.314;2022-07-30T06:39:45;11.73;;;8.60;;
10851;SDS011;5479;52.046;6.314;2022-07-30T06:42:13;12.90;;;7.72;;
10851;SDS011;5479;52.046;6.314;2022-07-30T06:44:41;9.35;;;7.03;;
10851;SDS011;5479;52.046;6.314;2022-07-30T06:47:09;11.13;;;7.10;;
10851;SDS011;5479;52.046;6.314;2022-07-30T06:49:37;10.23;;;7.30;;
10851;SDS011;5479;52.046;6.314;2022-07-30T06:52:06;8.43;;;5.63;;
10851;SDS011;5479;52.046;6.314;2022-07-30T06:54:35;8.85;;;5.63;;
10851;SDS011;5479;52.046;6.314;2022-07-30T06:57:03;8.50;;;5.30;;
10851;SDS011;5479;52.046;6.314;2022-07-30T06:59:31;10.05;;;5.07;;
10851;SDS011;5479;52.046;6.314;2022-07-30T07:01:59;9.13;;;4.70;;
10851;SDS011;5479;52.046;6.314;2022-07-30T07:04:26;10.88;;;4.72;;
10851;SDS011;5479;52.046;6.314;2022-07-30T07:06:55;8.73;;;5.30;;
10851;SDS011;5479;52.046;6.314;2022-07-30T07:09:23;9.52;;;5.03;;
10851;SDS011;5479;52.046;6.314;2022-07-30T07:11:52;9.45;;;5.55;;
10851;SDS011;5479;52.046;6.314;2022-07-30T07:14:20;7.05;;;4.80;;
10851;SDS011;5479;52.046;6.314;2022-07-30T07:16:48;7.50;;;5.03;;
10851;SDS011;5479;52.046;6.314;2022-07-30T07:19:16;9.70;;;4.95;;
10851;SDS011;5479;52.046;6.314;2022-07-30T07:21:44;8.88;;;5.07;;
10851;SDS011;5479;52.046;6.314;2022-07-30T07:24:11;8.88;;;4.07;;
10851;SDS011;5479;52.046;6.314;2022-07-30T07:26:39;9.45;;;4.63;;
10851;SDS011;5479;52.046;6.314;2022-07-30T07:29:08;8.48;;;4.78;;
10851;SDS011;5479;52.046;6.314;2022-07-30T07:31:36;8.90;;;4.70;;
10851;SDS011;5479;52.046;6.314;2022-07-30T07:34:04;7.22;;;4.43;;
10851;SDS011;5479;52.046;6.314;2022-07-30T07:36:32;7.90;;;3.90;;
10851;SDS011;5479;52.046;6.314;2022-07-30T07:39:01;9.98;;;4.40;;
10851;SDS011;5479;52.046;6.314;2022-07-30T07:41:35;9.57;;;4.30;;
10851;SDS011;5479;52.046;6.314;2022-07-30T07:44:03;9.07;;;4.60;;
10851;SDS011;5479;52.046;6.314;2022-07-30T07:46:33;6.32;;;3.92;;
10851;SDS011;5479;52.046;6.314;2022-07-30T07:49:01;6.72;;;3.33;;
10851;SDS011;5479;52.046;6.314;2022-07-30T07:51:29;7.65;;;4.35;;
10851;SDS011;5479;52.046;6.314;2022-07-30T07:53:56;8.30;;;3.80;;
10851;SDS011;5479;52.046;6.314;2022-07-30T07:56:24;8.60;;;3.25;;
10851;SDS011;5479;52.046;6.314;2022-07-30T07:58:52;7.00;;;3.40;;
10851;SDS011;5479;52.046;6.314;2022-07-30T08:01:20;6.30;;;3.20;;
10851;SDS011;5479;52.046;6.314;2022-07-30T08:03:49;7.00;;;3.60;;
10851;SDS011;5479;52.046;6.314;2022-07-30T08:06:17;6.63;;;3.30;;
10851;SDS011;5479;52.046;6.314;2022-07-30T08:08:45;8.63;;;3.63;;
10851;SDS011;5479;52.046;6.314;2022-07-30T08:11:13;6.90;;;3.55;;
10851;SDS011;5479;52.046;6.314;2022-07-30T08:13:41;6.68;;;3.70;;
10851;SDS011;5479;52.046;6.314;2022-07-30T08:16:09;9.75;;;3.95;;
10851;SDS011;5479;52.046;6.314;2022-07-30T08:18:39;7.25;;;3.15;;
10851;SDS011;5479;52.046;6.314;2022-07-30T08:21:08;12.75;;;3.53;;
10851;SDS011;5479;52.046;6.314;2022-07-30T08:23:36;9.88;;;3.20;;
10851;SDS011;5479;52.046;6.314;2022-07-30T08:26:04;7.85;;;3.38;;
10851;SDS011;5479;52.046;6.314;2022-07-30T08:28:32;7.10;;;3.47;;
10851;SDS011;5479;52.046;6.314;2022-07-30T08:31:02;6.80;;;3.17;;
10851;SDS011;5479;52.046;6.314;2022-07-30T08:33:30;6.10;;;2.95;;
10851;SDS011;5479;52.046;6.314;2022-07-30T08:35:58;5.90;;;3.00;;
10851;SDS011;5479;52.046;6.314;2022-07-30T08:38:27;11.00;;;3.67;;
10851;SDS011;5479;52.046;6.314;2022-07-30T08:40:55;6.97;;;3.17;;
10851;SDS011;5479;52.046;6.314;2022-07-30T08:43:23;5.68;;;2.95;;
10851;SDS011;5479;52.046;6.314;2022-07-30T08:45:52;7.18;;;2.78;;
10851;SDS011;5479;52.046;6.314;2022-07-30T08:48:22;5.68;;;2.95;;
10851;SDS011;5479;52.046;6.314;2022-07-30T08:50:51;5.55;;;2.70;;
10851;SDS011;5479;52.046;6.314;2022-07-30T08:53:20;6.38;;;3.00;;
10851;SDS011;5479;52.046;6.314;2022-07-30T08:55:50;7.10;;;3.38;;
10851;SDS011;5479;52.046;6.314;2022-07-30T08:58:22;5.07;;;2.72;;
10851;SDS011;5479;52.046;6.314;2022-07-30T09:00:54;5.82;;;2.67;;
10851;SDS011;5479;52.046;6.314;2022-07-30T09:03:22;6.40;;;2.97;;
10851;SDS011;5479;52.046;6.314;2022-07-30T09:05:50;6.75;;;2.80;;
10851;SDS011;5479;52.046;6.314;2022-07-30T09:08:18;7.50;;;3.05;;
10851;SDS011;5479;52.046;6.314;2022-07-30T09:10:46;6.55;;;2.72;;
10851;SDS011;5479;52.046;6.314;2022-07-30T09:13:23;6.00;;;2.70;;
10851;SDS011;5479;52.046;6.314;2022-07-30T09:15:53;5.43;;;2.50;;
10851;SDS011;5479;52.046;6.314;2022-07-30T09:18:25;8.40;;;3.22;;
10851;SDS011;5479;52.046;6.314;2022-07-30T09:20:54;5.30;;;3.03;;
10851;SDS011;5479;52.046;6.314;2022-07-30T09:23:22;6.40;;;2.90;;
10851;SDS011;5479;52.046;6.314;2022-07-30T09:25:50;5.50;;;2.65;;
10851;SDS011;5479;52.046;6.314;2022-07-30T09:28:25;6.75;;;3.20;;
10851;SDS011;5479;52.046;6.314;2022-07-30T09:30:56;7.70;;;3.38;;
10851;SDS011;5479;52.046;6.314;2022-07-30T09:33:31;4.72;;;2.60;;
10851;SDS011;5479;52.046;6.314;2022-07-30T09:36:01;6.43;;;2.85;;
10851;SDS011;5479;52.046;6.314;2022-07-30T09:38:38;8.63;;;3.00;;
10851;SDS011;5479;52.046;6.314;2022-07-30T09:41:09;7.78;;;3.08;;
10851;SDS011;5479;52.046;6.314;2022-07-30T09:43:46;5.60;;;2.70;;
10851;SDS011;5479;52.046;6.314;2022-07-30T09:46:15;6.85;;;2.83;;
10851;SDS011;5479;52.046;6.314;2022-07-30T09:48:43;5.45;;;2.67;;
10851;SDS011;5479;52.046;6.314;2022-07-30T09:51:12;5.60;;;2.90;;
10851;SDS011;5479;52.046;6.314;2022-07-30T09:53:51;5.75;;;3.10;;
10851;SDS011;5479;52.046;6.314;2022-07-30T09:56:24;5.57;;;2.50;;
10851;SDS011;5479;52.046;6.314;2022-07-30T09:58:54;6.97;;;2.65;;
10851;SDS011;5479;52.046;6.314;2022-07-30T10:01:22;5.50;;;2.70;;
10851;SDS011;5479;52.046;6.314;2022-07-30T10:03:50;6.43;;;2.67;;
10851;SDS011;5479;52.046;6.314;2022-07-30T10:06:18;6.90;;;2.95;;
10851;SDS011;5479;52.046;6.314;2022-07-30T10:08:58;6.65;;;3.05;;
10851;SDS011;5479;52.046;6.314;2022-07-30T10:11:27;5.57;;;2.80;;
10851;SDS011;5479;52.046;6.314;2022-07-30T10:13:57;7.15;;;3.17;;
10851;SDS011;5479;52.046;6.314;2022-07-30T10:16:27;6.28;;;2.70;;
10851;SDS011;5479;52.046;6.314;2022-07-30T10:18:56;6.40;;;2.80;;
10851;SDS011;5479;52.046;6.314;2022-07-30T10:21:25;6.40;;;3.00;;
10851;SDS011;5479;52.046;6.314;2022-07-30T10:23:54;5.80;;;2.80;;
10851;SDS011;5479;52.046;6.314;2022-07-30T10:26:22;5.15;;;2.97;;
10851;SDS011;5479;52.046;6.314;2022-07-30T10:28:50;5.38;;;2.65;;
10851;SDS011;5479;52.046;6.314;2022-07-30T10:31:21;7.18;;;3.20;;
10851;SDS011;5479;52.046;6.314;2022-07-30T10:33:49;5.10;;;2.90;;
10851;SDS011;5479;52.046;6.314;2022-07-30T10:36:17;5.10;;;2.60;;
10851;SDS011;5479;52.046;6.314;2022-07-30T10:38:47;4.90;;;2.55;;
10851;SDS011;5479;52.046;6.314;2022-07-30T10:41:16;7.30;;;2.92;;
10851;SDS011;5479;52.046;6.314;2022-07-30T10:44:02;4.90;;;2.60;;
10851;SDS011;5479;52.046;6.314;2022-07-30T10:46:45;5.32;;;2.58;;
10851;SDS011;5479;52.046;6.314;2022-07-30T10:49:21;5.15;;;2.47;;
10851;SDS011;5479;52.046;6.314;2022-07-30T10:51:51;6.45;;;2.75;;
10851;SDS011;5479;52.046;6.314;2022-07-30T10:54:37;3.92;;;2.22;;
10851;SDS011;5479;52.046;6.314;2022-07-30T10:57:08;5.72;;;2.75;;
10851;SDS011;5479;52.046;6.314;2022-07-30T11:02:38;3.65;;;2.30;;
10851;SDS011;5479;52.046;6.314;2022-07-30T11:05:22;5.30;;;2.38;;
10851;SDS011;5479;52.046;6.314;2022-07-30T11:07:53;5.05;;;2.47;;
10851;SDS011;5479;52.046;6.314;2022-07-30T11:10:34;4.70;;;2.50;;
10851;SDS011;5479;52.046;6.314;2022-07-30T11:13:04;5.63;;;2.80;;
10851;SDS011;5479;52.046;6.314;2022-07-30T11:15:52;4.47;;;2.60;;
10851;SDS011;5479;52.046;6.314;2022-07-30T11:18:24;5.43;;;2.35;;
10851;SDS011;5479;52.046;6.314;2022-07-30T11:23:41;7.28;;;2.60;;
10851;SDS011;5479;52.046;6.314;2022-07-30T11:35:14;6.38;;;2.80;;
10851;SDS011;5479;52.046;6.314;2022-07-30T11:38:03;4.40;;;2.50;;
10851;SDS011;5479;52.046;6.314;2022-07-30T11:40:35;5.07;;;2.47;;
10851;SDS011;5479;52.046;6.314;2022-07-30T11:43:18;5.10;;;2.60;;
10851;SDS011;5479;52.046;6.314;2022-07-30T11:45:50;5.90;;;2.42;;
10851;SDS011;5479;52.046;6.314;2022-07-30T11:48:20;4.78;;;2.47;;
10851;SDS011;5479;52.046;6.314;2022-07-30T11:50:50;6.40;;;2.97;;
10851;SDS011;5479;52.046;6.314;2022-07-30T11:53:22;4.65;;;2.58;;
10851;SDS011;5479;52.046;6.314;2022-07-30T11:55:50;5.10;;;2.53;;
10851;SDS011;5479;52.046;6.314;2022-07-30T11:58:22;5.57;;;2.45;;
10851;SDS011;5479;52.046;6.314;2022-07-30T12:00:54;3.75;;;2.20;;
10851;SDS011;5479;52.046;6.314;2022-07-30T12:03:26;4.95;;;2.60;;
10851;SDS011;5479;52.046;6.314;2022-07-30T12:06:03;5.60;;;2.40;;
10851;SDS011;5479;52.046;6.314;2022-07-30T12:08:37;4.93;;;2.60;;
10851;SDS011;5479;52.046;6.314;2022-07-30T12:11:07;4.95;;;2.70;;
10851;SDS011;5479;52.046;6.314;2022-07-30T12:13:35;4.75;;;2.58;;
10851;SDS011;5479;52.046;6.314;2022-07-30T12:16:06;4.05;;;2.30;;
10851;SDS011;5479;52.046;6.314;2022-07-30T12:18:35;4.82;;;2.40;;
10851;SDS011;5479;52.046;6.314;2022-07-30T12:21:05;4.97;;;2.60;;
10851;SDS011;5479;52.046;6.314;2022-07-30T12:23:34;4.32;;;2.42;;
10851;SDS011;5479;52.046;6.314;2022-07-30T12:26:02;6.32;;;2.50;;
10851;SDS011;5479;52.046;6.314;2022-07-30T12:28:32;5.53;;;2.50;;
10851;SDS011;5479;52.046;6.314;2022-07-30T12:31:01;3.45;;;2.30;;
10851;SDS011;5479;52.046;6.314;2022-07-30T12:33:29;5.00;;;2.38;;
10851;SDS011;5479;52.046;6.314;2022-07-30T12:35:58;4.75;;;2.40;;
10851;SDS011;5479;52.046;6.314;2022-07-30T12:38:28;3.38;;;2.10;;
10851;SDS011;5479;52.046;6.314;2022-07-30T12:40:58;3.97;;;2.05;;
10851;SDS011;5479;52.046;6.314;2022-07-30T12:43:46;3.35;;;2.10;;
10851;SDS011;5479;52.046;6.314;2022-07-30T12:46:18;5.15;;;2.28;;
10851;SDS011;5479;52.046;6.314;2022-07-30T12:48:47;3.25;;;2.05;;
10851;SDS011;5479;52.046;6.314;2022-07-30T12:51:23;5.53;;;2.30;;
10851;SDS011;5479;52.046;6.314;2022-07-30T12:53:53;4.47;;;1.90;;
10851;SDS011;5479;52.046;6.314;2022-07-30T12:56:24;4.50;;;2.20;;
10851;SDS011;5479;52.046;6.314;2022-07-30T12:58:54;3.85;;;2.10;;
10851;SDS011;5479;52.046;6.314;2022-07-30T13:01:38;3.90;;;2.05;;
10851;SDS011;5479;52.046;6.314;2022-07-30T13:04:07;4.07;;;2.08;;
10851;SDS011;5479;52.046;6.314;2022-07-30T13:06:35;5.22;;;2.13;;
10851;SDS011;5479;52.046;6.314;2022-07-30T13:09:11;3.63;;;2.17;;
10851;SDS011;5479;52.046;6.314;2022-07-30T13:11:45;2.92;;;2.22;;
10851;SDS011;5479;52.046;6.314;2022-07-30T13:14:13;5.28;;;2.00;;
10851;SDS011;5479;52.046;6.314;2022-07-30T13:16:42;5.15;;;2.13;;
10851;SDS011;5479;52.046;6.314;2022-07-30T13:19:10;5.55;;;2.15;;
10851;SDS011;5479;52.046;6.314;2022-07-30T13:21:39;3.83;;;2.38;;
10851;SDS011;5479;52.046;6.314;2022-07-30T13:24:09;7.07;;;2.28;;
10851;SDS011;5479;52.046;6.314;2022-07-30T13:26:38;5.03;;;2.10;;
10851;SDS011;5479;52.046;6.314;2022-07-30T13:29:06;6.22;;;2.60;;
10851;SDS011;5479;52.046;6.314;2022-07-30T13:31:34;3.72;;;2.08;;
10851;SDS011;5479;52.046;6.314;2022-07-30T13:34:02;3.25;;;2.15;;
10851;SDS011;5479;52.046;6.314;2022-07-30T13:36:30;3.40;;;2.00;;
10851;SDS011;5479;52.046;6.314;2022-07-30T13:38:58;3.75;;;2.05;;
10851;SDS011;5479;52.046;6.314;2022-07-30T13:41:27;2.63;;;1.83;;
10851;SDS011;5479;52.046;6.314;2022-07-30T13:43:55;4.97;;;2.13;;
10851;SDS011;5479;52.046;6.314;2022-07-30T13:46:23;5.65;;;2.03;;
10851;SDS011;5479;52.046;6.314;2022-07-30T13:48:51;2.65;;;1.90;;
10851;SDS011;5479;52.046;6.314;2022-07-30T13:51:20;5.32;;;2.20;;
10851;SDS011;5479;52.046;6.314;2022-07-30T13:53:47;5.93;;;2.08;;
10851;SDS011;5479;52.046;6.314;2022-07-30T13:56:15;6.03;;;2.30;;
10851;SDS011;5479;52.046;6.314;2022-07-30T13:58:44;6.25;;;2.30;;
10851;SDS011;5479;52.046;6.314;2022-07-30T14:01:13;4.93;;;2.30;;
10851;SDS011;5479;52.046;6.314;2022-07-30T14:03:41;6.20;;;2.45;;
10851;SDS011;5479;52.046;6.314;2022-07-30T14:06:08;3.42;;;2.05;;
10851;SDS011;5479;52.046;6.314;2022-07-30T14:08:37;4.38;;;2.30;;
10851;SDS011;5479;52.046;6.314;2022-07-30T14:11:05;5.53;;;2.30;;
10851;SDS011;5479;52.046;6.314;2022-07-30T14:13:35;4.53;;;2.15;;
10851;SDS011;5479;52.046;6.314;2022-07-30T14:16:04;5.15;;;2.25;;
10851;SDS011;5479;52.046;6.314;2022-07-30T14:18:32;3.17;;;2.15;;
10851;SDS011;5479;52.046;6.314;2022-07-30T14:21:00;4.57;;;2.08;;
10851;SDS011;5479;52.046;6.314;2022-07-30T14:23:28;3.78;;;2.20;;
10851;SDS011;5479;52.046;6.314;2022-07-30T14:25:56;3.80;;;2.47;;
10851;SDS011;5479;52.046;6.314;2022-07-30T14:28:24;6.63;;;2.20;;
10851;SDS011;5479;52.046;6.314;2022-07-30T14:30:54;5.82;;;2.40;;
10851;SDS011;5479;52.046;6.314;2022-07-30T14:33:23;4.85;;;2.22;;
10851;SDS011;5479;52.046;6.314;2022-07-30T14:35:51;5.50;;;2.22;;
10851;SDS011;5479;52.046;6.314;2022-07-30T14:38:19;2.28;;;2.03;;
10851;SDS011;5479;52.046;6.314;2022-07-30T14:40:47;3.92;;;2.35;;
10851;SDS011;5479;52.046;6.314;2022-07-30T14:43:15;4.22;;;2.40;;
10851;SDS011;5479;52.046;6.314;2022-07-30T14:45:44;4.82;;;2.40;;
10851;SDS011;5479;52.046;6.314;2022-07-30T14:48:15;3.70;;;2.17;;
10851;SDS011;5479;52.046;6.314;2022-07-30T14:50:45;4.03;;;2.20;;
10851;SDS011;5479;52.046;6.314;2022-07-30T14:53:13;5.00;;;2.30;;
10851;SDS011;5479;52.046;6.314;2022-07-30T14:55:42;4.57;;;2.50;;
10851;SDS011;5479;52.046;6.314;2022-07-30T14:58:09;4.07;;;2.20;;
10851;SDS011;5479;52.046;6.314;2022-07-30T15:00:38;4.03;;;2.40;;
10851;SDS011;5479;52.046;6.314;2022-07-30T15:03:06;5.15;;;2.35;;
10851;SDS011;5479;52.046;6.314;2022-07-30T15:05:33;4.88;;;2.60;;
10851;SDS011;5479;52.046;6.314;2022-07-30T15:08:03;3.47;;;2.10;;
10851;SDS011;5479;52.046;6.314;2022-07-30T15:10:31;5.50;;;2.53;;
10851;SDS011;5479;52.046;6.314;2022-07-30T15:12:59;5.00;;;2.63;;
10851;SDS011;5479;52.046;6.314;2022-07-30T15:15:27;5.55;;;2.65;;
10851;SDS011;5479;52.046;6.314;2022-07-30T15:17:55;3.38;;;2.50;;
10851;SDS011;5479;52.046;6.314;2022-07-30T15:20:23;4.68;;;2.60;;
10851;SDS011;5479;52.046;6.314;2022-07-30T15:22:53;3.97;;;2.33;;